<gpx creator="Cyclotour.ca" version="1.1" xmlns:gpsies="http://www.gpsies.com/GPX/1/0" xmlns:xsi="http://www.w3.org/2001/XMLSchema-instance" xmlns="http://www.topografix.com/GPX/1/1" xsi:schemaLocation="http://www.topografix.com/GPX/1/1 http://www.topografix.com/GPX/1/1/gpx.xsd http://www.gpsies.com/GPX/1/0 http://www.gpsies.com/gpsies.xsd">
<trk>
<name>Ste-Elizabeth de Warwick La fromagerie </name>
<trkseg>
<trkpt lat="45.922650000" lon="-72.078390000">
<ele>0</ele>
<time>2026-09-04T06:32:12Z</time>
</trkpt>
<trkpt lat="45.922650000" lon="-72.078390000">
<ele>0</ele>
<time>2026-09-04T06:32:13Z</time>
</trkpt>
<trkpt lat="45.922630000" lon="-72.078410000">
<ele>0</ele>
<time>2026-09-04T06:32:14Z</time>
</trkpt>
<trkpt lat="45.922630000" lon="-72.078410000">
<ele>0</ele>
<time>2026-09-04T06:32:15Z</time>
</trkpt>
<trkpt lat="45.922720000" lon="-72.078310000">
<ele>0</ele>
<time>2026-09-04T06:32:16Z</time>
</trkpt>
<trkpt lat="45.922720000" lon="-72.078310000">
<ele>0</ele>
<time>2026-09-04T06:32:17Z</time>
</trkpt>
<trkpt lat="45.923350000" lon="-72.077650000">
<ele>0</ele>
<time>2026-09-04T06:32:18Z</time>
</trkpt>
<trkpt lat="45.924250000" lon="-72.076650000">
<ele>0</ele>
<time>2026-09-04T06:32:19Z</time>
</trkpt>
<trkpt lat="45.925820000" lon="-72.074880000">
<ele>0</ele>
<time>2026-09-04T06:32:20Z</time>
</trkpt>
<trkpt lat="45.927080000" lon="-72.073460000">
<ele>0</ele>
<time>2026-09-04T06:32:21Z</time>
</trkpt>
<trkpt lat="45.930320000" lon="-72.069870000">
<ele>0</ele>
<time>2026-09-04T06:32:22Z</time>
</trkpt>
<trkpt lat="45.933490000" lon="-72.066350000">
<ele>0</ele>
<time>2026-09-04T06:32:23Z</time>
</trkpt>
<trkpt lat="45.935040000" lon="-72.064620000">
<ele>0</ele>
<time>2026-09-04T06:32:24Z</time>
</trkpt>
<trkpt lat="45.934980000" lon="-72.064520000">
<ele>0</ele>
<time>2026-09-04T06:32:25Z</time>
</trkpt>
<trkpt lat="45.934980000" lon="-72.064520000">
<ele>0</ele>
<time>2026-09-04T06:32:26Z</time>
</trkpt>
<trkpt lat="45.932980000" lon="-72.060700000">
<ele>0</ele>
<time>2026-09-04T06:32:27Z</time>
</trkpt>
<trkpt lat="45.931340000" lon="-72.057620000">
<ele>0</ele>
<time>2026-09-04T06:32:28Z</time>
</trkpt>
<trkpt lat="45.929580000" lon="-72.054340000">
<ele>0</ele>
<time>2026-09-04T06:32:29Z</time>
</trkpt>
<trkpt lat="45.927600000" lon="-72.050570000">
<ele>0</ele>
<time>2026-09-04T06:32:30Z</time>
</trkpt>
<trkpt lat="45.926860000" lon="-72.049190000">
<ele>0</ele>
<time>2026-09-04T06:32:31Z</time>
</trkpt>
<trkpt lat="45.926600000" lon="-72.048740000">
<ele>0</ele>
<time>2026-09-04T06:32:32Z</time>
</trkpt>
<trkpt lat="45.925190000" lon="-72.046840000">
<ele>0</ele>
<time>2026-09-04T06:32:33Z</time>
</trkpt>
<trkpt lat="45.924270000" lon="-72.045620000">
<ele>0</ele>
<time>2026-09-04T06:32:34Z</time>
</trkpt>
<trkpt lat="45.921310000" lon="-72.041740000">
<ele>0</ele>
<time>2026-09-04T06:32:35Z</time>
</trkpt>
<trkpt lat="45.921210000" lon="-72.041610000">
<ele>0</ele>
<time>2026-09-04T06:32:36Z</time>
</trkpt>
<trkpt lat="45.921260000" lon="-72.041550000">
<ele>0</ele>
<time>2026-09-04T06:32:37Z</time>
</trkpt>
<trkpt lat="45.921260000" lon="-72.041550000">
<ele>0</ele>
<time>2026-09-04T06:32:38Z</time>
</trkpt>
<trkpt lat="45.923000000" lon="-72.039640000">
<ele>0</ele>
<time>2026-09-04T06:32:39Z</time>
</trkpt>
<trkpt lat="45.923910000" lon="-72.038700000">
<ele>0</ele>
<time>2026-09-04T06:32:40Z</time>
</trkpt>
<trkpt lat="45.925660000" lon="-72.036900000">
<ele>0</ele>
<time>2026-09-04T06:32:41Z</time>
</trkpt>
<trkpt lat="45.926400000" lon="-72.036140000">
<ele>0</ele>
<time>2026-09-04T06:32:42Z</time>
</trkpt>
<trkpt lat="45.927370000" lon="-72.035080000">
<ele>0</ele>
<time>2026-09-04T06:32:43Z</time>
</trkpt>
<trkpt lat="45.928530000" lon="-72.033770000">
<ele>0</ele>
<time>2026-09-04T06:32:44Z</time>
</trkpt>
<trkpt lat="45.929090000" lon="-72.033120000">
<ele>0</ele>
<time>2026-09-04T06:32:45Z</time>
</trkpt>
<trkpt lat="45.929360000" lon="-72.032780000">
<ele>0</ele>
<time>2026-09-04T06:32:46Z</time>
</trkpt>
<trkpt lat="45.929630000" lon="-72.032440000">
<ele>0</ele>
<time>2026-09-04T06:32:47Z</time>
</trkpt>
<trkpt lat="45.929740000" lon="-72.032240000">
<ele>0</ele>
<time>2026-09-04T06:32:48Z</time>
</trkpt>
<trkpt lat="45.929860000" lon="-72.032030000">
<ele>0</ele>
<time>2026-09-04T06:32:49Z</time>
</trkpt>
<trkpt lat="45.930270000" lon="-72.031190000">
<ele>0</ele>
<time>2026-09-04T06:32:50Z</time>
</trkpt>
<trkpt lat="45.930680000" lon="-72.030340000">
<ele>0</ele>
<time>2026-09-04T06:32:51Z</time>
</trkpt>
<trkpt lat="45.931100000" lon="-72.029470000">
<ele>0</ele>
<time>2026-09-04T06:32:52Z</time>
</trkpt>
<trkpt lat="45.931670000" lon="-72.028630000">
<ele>0</ele>
<time>2026-09-04T06:32:53Z</time>
</trkpt>
<trkpt lat="45.932550000" lon="-72.027580000">
<ele>0</ele>
<time>2026-09-04T06:32:54Z</time>
</trkpt>
<trkpt lat="45.933110000" lon="-72.026920000">
<ele>0</ele>
<time>2026-09-04T06:32:55Z</time>
</trkpt>
<trkpt lat="45.935050000" lon="-72.024610000">
<ele>0</ele>
<time>2026-09-04T06:32:56Z</time>
</trkpt>
<trkpt lat="45.936030000" lon="-72.023440000">
<ele>0</ele>
<time>2026-09-04T06:32:57Z</time>
</trkpt>
<trkpt lat="45.937150000" lon="-72.022210000">
<ele>0</ele>
<time>2026-09-04T06:32:58Z</time>
</trkpt>
<trkpt lat="45.938810000" lon="-72.020200000">
<ele>0</ele>
<time>2026-09-04T06:32:59Z</time>
</trkpt>
<trkpt lat="45.939920000" lon="-72.018880000">
<ele>0</ele>
<time>2026-09-04T06:33:00Z</time>
</trkpt>
<trkpt lat="45.940790000" lon="-72.017880000">
<ele>0</ele>
<time>2026-09-04T06:33:01Z</time>
</trkpt>
<trkpt lat="45.941340000" lon="-72.017290000">
<ele>0</ele>
<time>2026-09-04T06:33:02Z</time>
</trkpt>
<trkpt lat="45.942770000" lon="-72.015760000">
<ele>0</ele>
<time>2026-09-04T06:33:03Z</time>
</trkpt>
<trkpt lat="45.943450000" lon="-72.015200000">
<ele>0</ele>
<time>2026-09-04T06:33:04Z</time>
</trkpt>
<trkpt lat="45.945390000" lon="-72.014030000">
<ele>0</ele>
<time>2026-09-04T06:33:05Z</time>
</trkpt>
<trkpt lat="45.946360000" lon="-72.013550000">
<ele>0</ele>
<time>2026-09-04T06:33:06Z</time>
</trkpt>
<trkpt lat="45.948210000" lon="-72.013380000">
<ele>0</ele>
<time>2026-09-04T06:33:07Z</time>
</trkpt>
<trkpt lat="45.949860000" lon="-72.013220000">
<ele>0</ele>
<time>2026-09-04T06:33:08Z</time>
</trkpt>
<trkpt lat="45.951410000" lon="-72.012720000">
<ele>0</ele>
<time>2026-09-04T06:33:09Z</time>
</trkpt>
<trkpt lat="45.952630000" lon="-72.012290000">
<ele>0</ele>
<time>2026-09-04T06:33:10Z</time>
</trkpt>
<trkpt lat="45.953850000" lon="-72.011850000">
<ele>0</ele>
<time>2026-09-04T06:33:11Z</time>
</trkpt>
<trkpt lat="45.954540000" lon="-72.011580000">
<ele>0</ele>
<time>2026-09-04T06:33:12Z</time>
</trkpt>
<trkpt lat="45.955060000" lon="-72.011340000">
<ele>0</ele>
<time>2026-09-04T06:33:13Z</time>
</trkpt>
<trkpt lat="45.955520000" lon="-72.011120000">
<ele>0</ele>
<time>2026-09-04T06:33:14Z</time>
</trkpt>
<trkpt lat="45.955920000" lon="-72.010980000">
<ele>0</ele>
<time>2026-09-04T06:33:15Z</time>
</trkpt>
<trkpt lat="45.956450000" lon="-72.010800000">
<ele>0</ele>
<time>2026-09-04T06:33:16Z</time>
</trkpt>
<trkpt lat="45.956800000" lon="-72.010680000">
<ele>0</ele>
<time>2026-09-04T06:33:17Z</time>
</trkpt>
<trkpt lat="45.958020000" lon="-72.010260000">
<ele>0</ele>
<time>2026-09-04T06:33:18Z</time>
</trkpt>
<trkpt lat="45.958190000" lon="-72.010170000">
<ele>0</ele>
<time>2026-09-04T06:33:19Z</time>
</trkpt>
<trkpt lat="45.958550000" lon="-72.009910000">
<ele>0</ele>
<time>2026-09-04T06:33:20Z</time>
</trkpt>
<trkpt lat="45.958400000" lon="-72.009740000">
<ele>0</ele>
<time>2026-09-04T06:33:21Z</time>
</trkpt>
<trkpt lat="45.958400000" lon="-72.009740000">
<ele>0</ele>
<time>2026-09-04T06:33:22Z</time>
</trkpt>
<trkpt lat="45.957200000" lon="-72.008270000">
<ele>0</ele>
<time>2026-09-04T06:33:23Z</time>
</trkpt>
<trkpt lat="45.956790000" lon="-72.007620000">
<ele>0</ele>
<time>2026-09-04T06:33:24Z</time>
</trkpt>
<trkpt lat="45.956580000" lon="-72.007210000">
<ele>0</ele>
<time>2026-09-04T06:33:25Z</time>
</trkpt>
<trkpt lat="45.956490000" lon="-72.006970000">
<ele>0</ele>
<time>2026-09-04T06:33:26Z</time>
</trkpt>
<trkpt lat="45.956190000" lon="-72.006050000">
<ele>0</ele>
<time>2026-09-04T06:33:27Z</time>
</trkpt>
<trkpt lat="45.956020000" lon="-72.005520000">
<ele>0</ele>
<time>2026-09-04T06:33:28Z</time>
</trkpt>
<trkpt lat="45.955400000" lon="-72.003430000">
<ele>0</ele>
<time>2026-09-04T06:33:29Z</time>
</trkpt>
<trkpt lat="45.955160000" lon="-72.002810000">
<ele>0</ele>
<time>2026-09-04T06:33:30Z</time>
</trkpt>
<trkpt lat="45.954930000" lon="-72.002340000">
<ele>0</ele>
<time>2026-09-04T06:33:31Z</time>
</trkpt>
<trkpt lat="45.954670000" lon="-72.001940000">
<ele>0</ele>
<time>2026-09-04T06:33:32Z</time>
</trkpt>
<trkpt lat="45.954420000" lon="-72.001600000">
<ele>0</ele>
<time>2026-09-04T06:33:33Z</time>
</trkpt>
<trkpt lat="45.953750000" lon="-72.000760000">
<ele>0</ele>
<time>2026-09-04T06:33:34Z</time>
</trkpt>
<trkpt lat="45.953370000" lon="-72.000330000">
<ele>0</ele>
<time>2026-09-04T06:33:35Z</time>
</trkpt>
<trkpt lat="45.952740000" lon="-71.999660000">
<ele>0</ele>
<time>2026-09-04T06:33:36Z</time>
</trkpt>
<trkpt lat="45.952000000" lon="-71.999060000">
<ele>0</ele>
<time>2026-09-04T06:33:37Z</time>
</trkpt>
<trkpt lat="45.950680000" lon="-71.998190000">
<ele>0</ele>
<time>2026-09-04T06:33:38Z</time>
</trkpt>
<trkpt lat="45.950330000" lon="-71.997910000">
<ele>0</ele>
<time>2026-09-04T06:33:39Z</time>
</trkpt>
<trkpt lat="45.950130000" lon="-71.997740000">
<ele>0</ele>
<time>2026-09-04T06:33:40Z</time>
</trkpt>
<trkpt lat="45.950010000" lon="-71.997620000">
<ele>0</ele>
<time>2026-09-04T06:33:41Z</time>
</trkpt>
<trkpt lat="45.950010000" lon="-71.997620000">
<ele>0</ele>
<time>2026-09-04T06:33:42Z</time>
</trkpt>
<trkpt lat="45.949580000" lon="-71.997220000">
<ele>0</ele>
<time>2026-09-04T06:33:43Z</time>
</trkpt>
<trkpt lat="45.949330000" lon="-71.996830000">
<ele>0</ele>
<time>2026-09-04T06:33:44Z</time>
</trkpt>
<trkpt lat="45.948980000" lon="-71.996240000">
<ele>0</ele>
<time>2026-09-04T06:33:45Z</time>
</trkpt>
<trkpt lat="45.947940000" lon="-71.994260000">
<ele>0</ele>
<time>2026-09-04T06:33:46Z</time>
</trkpt>
<trkpt lat="45.947500000" lon="-71.993400000">
<ele>0</ele>
<time>2026-09-04T06:33:47Z</time>
</trkpt>
<trkpt lat="45.947160000" lon="-71.992790000">
<ele>0</ele>
<time>2026-09-04T06:33:48Z</time>
</trkpt>
<trkpt lat="45.946400000" lon="-71.991270000">
<ele>0</ele>
<time>2026-09-04T06:33:49Z</time>
</trkpt>
<trkpt lat="45.945470000" lon="-71.989430000">
<ele>0</ele>
<time>2026-09-04T06:33:50Z</time>
</trkpt>
<trkpt lat="45.945040000" lon="-71.988540000">
<ele>0</ele>
<time>2026-09-04T06:33:51Z</time>
</trkpt>
<trkpt lat="45.944940000" lon="-71.988250000">
<ele>0</ele>
<time>2026-09-04T06:33:52Z</time>
</trkpt>
<trkpt lat="45.944910000" lon="-71.988150000">
<ele>0</ele>
<time>2026-09-04T06:33:53Z</time>
</trkpt>
<trkpt lat="45.944760000" lon="-71.988230000">
<ele>0</ele>
<time>2026-09-04T06:33:54Z</time>
</trkpt>
<trkpt lat="45.944760000" lon="-71.988230000">
<ele>0</ele>
<time>2026-09-04T06:33:55Z</time>
</trkpt>
<trkpt lat="45.941650000" lon="-71.989840000">
<ele>0</ele>
<time>2026-09-04T06:33:56Z</time>
</trkpt>
<trkpt lat="45.941400000" lon="-71.989900000">
<ele>0</ele>
<time>2026-09-04T06:33:57Z</time>
</trkpt>
<trkpt lat="45.940960000" lon="-71.989960000">
<ele>0</ele>
<time>2026-09-04T06:33:58Z</time>
</trkpt>
<trkpt lat="45.939850000" lon="-71.990210000">
<ele>0</ele>
<time>2026-09-04T06:33:59Z</time>
</trkpt>
<trkpt lat="45.938950000" lon="-71.990370000">
<ele>0</ele>
<time>2026-09-04T06:34:00Z</time>
</trkpt>
<trkpt lat="45.937950000" lon="-71.990620000">
<ele>0</ele>
<time>2026-09-04T06:34:01Z</time>
</trkpt>
<trkpt lat="45.937400000" lon="-71.990760000">
<ele>0</ele>
<time>2026-09-04T06:34:02Z</time>
</trkpt>
<trkpt lat="45.937150000" lon="-71.990870000">
<ele>0</ele>
<time>2026-09-04T06:34:03Z</time>
</trkpt>
<trkpt lat="45.936990000" lon="-71.991000000">
<ele>0</ele>
<time>2026-09-04T06:34:04Z</time>
</trkpt>
<trkpt lat="45.936610000" lon="-71.991390000">
<ele>0</ele>
<time>2026-09-04T06:34:05Z</time>
</trkpt>
<trkpt lat="45.935810000" lon="-71.992270000">
<ele>0</ele>
<time>2026-09-04T06:34:06Z</time>
</trkpt>
<trkpt lat="45.934660000" lon="-71.993520000">
<ele>0</ele>
<time>2026-09-04T06:34:07Z</time>
</trkpt>
<trkpt lat="45.932860000" lon="-71.995440000">
<ele>0</ele>
<time>2026-09-04T06:34:08Z</time>
</trkpt>
<trkpt lat="45.932360000" lon="-71.995980000">
<ele>0</ele>
<time>2026-09-04T06:34:09Z</time>
</trkpt>
<trkpt lat="45.930880000" lon="-71.997580000">
<ele>0</ele>
<time>2026-09-04T06:34:10Z</time>
</trkpt>
<trkpt lat="45.930430000" lon="-71.998030000">
<ele>0</ele>
<time>2026-09-04T06:34:11Z</time>
</trkpt>
<trkpt lat="45.930340000" lon="-71.997910000">
<ele>0</ele>
<time>2026-09-04T06:34:12Z</time>
</trkpt>
<trkpt lat="45.930340000" lon="-71.997910000">
<ele>0</ele>
<time>2026-09-04T06:34:13Z</time>
</trkpt>
<trkpt lat="45.930150000" lon="-71.997600000">
<ele>0</ele>
<time>2026-09-04T06:34:14Z</time>
</trkpt>
<trkpt lat="45.929670000" lon="-71.996740000">
<ele>0</ele>
<time>2026-09-04T06:34:15Z</time>
</trkpt>
<trkpt lat="45.929440000" lon="-71.996440000">
<ele>0</ele>
<time>2026-09-04T06:34:16Z</time>
</trkpt>
<trkpt lat="45.929290000" lon="-71.996300000">
<ele>0</ele>
<time>2026-09-04T06:34:17Z</time>
</trkpt>
<trkpt lat="45.929120000" lon="-71.996230000">
<ele>0</ele>
<time>2026-09-04T06:34:18Z</time>
</trkpt>
<trkpt lat="45.928940000" lon="-71.996190000">
<ele>0</ele>
<time>2026-09-04T06:34:19Z</time>
</trkpt>
<trkpt lat="45.928650000" lon="-71.996220000">
<ele>0</ele>
<time>2026-09-04T06:34:20Z</time>
</trkpt>
<trkpt lat="45.928270000" lon="-71.996300000">
<ele>0</ele>
<time>2026-09-04T06:34:21Z</time>
</trkpt>
<trkpt lat="45.927970000" lon="-71.996400000">
<ele>0</ele>
<time>2026-09-04T06:34:22Z</time>
</trkpt>
<trkpt lat="45.927650000" lon="-71.996550000">
<ele>0</ele>
<time>2026-09-04T06:34:23Z</time>
</trkpt>
<trkpt lat="45.927410000" lon="-71.996710000">
<ele>0</ele>
<time>2026-09-04T06:34:24Z</time>
</trkpt>
<trkpt lat="45.926710000" lon="-71.997340000">
<ele>0</ele>
<time>2026-09-04T06:34:25Z</time>
</trkpt>
<trkpt lat="45.926200000" lon="-71.997940000">
<ele>0</ele>
<time>2026-09-04T06:34:26Z</time>
</trkpt>
<trkpt lat="45.925970000" lon="-71.998240000">
<ele>0</ele>
<time>2026-09-04T06:34:27Z</time>
</trkpt>
<trkpt lat="45.925780000" lon="-71.998470000">
<ele>0</ele>
<time>2026-09-04T06:34:28Z</time>
</trkpt>
<trkpt lat="45.925550000" lon="-71.998680000">
<ele>0</ele>
<time>2026-09-04T06:34:29Z</time>
</trkpt>
<trkpt lat="45.925190000" lon="-71.998860000">
<ele>0</ele>
<time>2026-09-04T06:34:30Z</time>
</trkpt>
<trkpt lat="45.924950000" lon="-71.998970000">
<ele>0</ele>
<time>2026-09-04T06:34:31Z</time>
</trkpt>
<trkpt lat="45.924720000" lon="-71.999090000">
<ele>0</ele>
<time>2026-09-04T06:34:32Z</time>
</trkpt>
<trkpt lat="45.924390000" lon="-71.999310000">
<ele>0</ele>
<time>2026-09-04T06:34:33Z</time>
</trkpt>
<trkpt lat="45.923370000" lon="-72.000040000">
<ele>0</ele>
<time>2026-09-04T06:34:34Z</time>
</trkpt>
<trkpt lat="45.922590000" lon="-72.000640000">
<ele>0</ele>
<time>2026-09-04T06:34:35Z</time>
</trkpt>
<trkpt lat="45.922350000" lon="-72.000820000">
<ele>0</ele>
<time>2026-09-04T06:34:36Z</time>
</trkpt>
<trkpt lat="45.921940000" lon="-72.001060000">
<ele>0</ele>
<time>2026-09-04T06:34:37Z</time>
</trkpt>
<trkpt lat="45.921770000" lon="-72.001120000">
<ele>0</ele>
<time>2026-09-04T06:34:38Z</time>
</trkpt>
<trkpt lat="45.920990000" lon="-72.001310000">
<ele>0</ele>
<time>2026-09-04T06:34:39Z</time>
</trkpt>
<trkpt lat="45.920780000" lon="-72.001400000">
<ele>0</ele>
<time>2026-09-04T06:34:40Z</time>
</trkpt>
<trkpt lat="45.920390000" lon="-72.001680000">
<ele>0</ele>
<time>2026-09-04T06:34:41Z</time>
</trkpt>
<trkpt lat="45.919260000" lon="-72.002480000">
<ele>0</ele>
<time>2026-09-04T06:34:42Z</time>
</trkpt>
<trkpt lat="45.918770000" lon="-72.002800000">
<ele>0</ele>
<time>2026-09-04T06:34:43Z</time>
</trkpt>
<trkpt lat="45.918480000" lon="-72.003010000">
<ele>0</ele>
<time>2026-09-04T06:34:44Z</time>
</trkpt>
<trkpt lat="45.917970000" lon="-72.003390000">
<ele>0</ele>
<time>2026-09-04T06:34:45Z</time>
</trkpt>
<trkpt lat="45.917180000" lon="-72.004000000">
<ele>0</ele>
<time>2026-09-04T06:34:46Z</time>
</trkpt>
<trkpt lat="45.915960000" lon="-72.005110000">
<ele>0</ele>
<time>2026-09-04T06:34:47Z</time>
</trkpt>
<trkpt lat="45.915200000" lon="-72.005790000">
<ele>0</ele>
<time>2026-09-04T06:34:48Z</time>
</trkpt>
<trkpt lat="45.914280000" lon="-72.006610000">
<ele>0</ele>
<time>2026-09-04T06:34:49Z</time>
</trkpt>
<trkpt lat="45.913530000" lon="-72.007320000">
<ele>0</ele>
<time>2026-09-04T06:34:50Z</time>
</trkpt>
<trkpt lat="45.913100000" lon="-72.007790000">
<ele>0</ele>
<time>2026-09-04T06:34:51Z</time>
</trkpt>
<trkpt lat="45.912860000" lon="-72.008150000">
<ele>0</ele>
<time>2026-09-04T06:34:52Z</time>
</trkpt>
<trkpt lat="45.912680000" lon="-72.008610000">
<ele>0</ele>
<time>2026-09-04T06:34:53Z</time>
</trkpt>
<trkpt lat="45.912600000" lon="-72.008840000">
<ele>0</ele>
<time>2026-09-04T06:34:54Z</time>
</trkpt>
<trkpt lat="45.912140000" lon="-72.010200000">
<ele>0</ele>
<time>2026-09-04T06:34:55Z</time>
</trkpt>
<trkpt lat="45.911750000" lon="-72.011090000">
<ele>0</ele>
<time>2026-09-04T06:34:56Z</time>
</trkpt>
<trkpt lat="45.911480000" lon="-72.011790000">
<ele>0</ele>
<time>2026-09-04T06:34:57Z</time>
</trkpt>
<trkpt lat="45.911330000" lon="-72.012410000">
<ele>0</ele>
<time>2026-09-04T06:34:58Z</time>
</trkpt>
<trkpt lat="45.911180000" lon="-72.013280000">
<ele>0</ele>
<time>2026-09-04T06:34:59Z</time>
</trkpt>
<trkpt lat="45.911130000" lon="-72.013530000">
<ele>0</ele>
<time>2026-09-04T06:35:00Z</time>
</trkpt>
<trkpt lat="45.910950000" lon="-72.014530000">
<ele>0</ele>
<time>2026-09-04T06:35:01Z</time>
</trkpt>
<trkpt lat="45.910820000" lon="-72.015010000">
<ele>0</ele>
<time>2026-09-04T06:35:02Z</time>
</trkpt>
<trkpt lat="45.910510000" lon="-72.015940000">
<ele>0</ele>
<time>2026-09-04T06:35:03Z</time>
</trkpt>
<trkpt lat="45.910330000" lon="-72.016400000">
<ele>0</ele>
<time>2026-09-04T06:35:04Z</time>
</trkpt>
<trkpt lat="45.910230000" lon="-72.016570000">
<ele>0</ele>
<time>2026-09-04T06:35:05Z</time>
</trkpt>
<trkpt lat="45.909920000" lon="-72.016960000">
<ele>0</ele>
<time>2026-09-04T06:35:06Z</time>
</trkpt>
<trkpt lat="45.909110000" lon="-72.017800000">
<ele>0</ele>
<time>2026-09-04T06:35:07Z</time>
</trkpt>
<trkpt lat="45.908940000" lon="-72.017980000">
<ele>0</ele>
<time>2026-09-04T06:35:08Z</time>
</trkpt>
<trkpt lat="45.907430000" lon="-72.019650000">
<ele>0</ele>
<time>2026-09-04T06:35:09Z</time>
</trkpt>
<trkpt lat="45.906800000" lon="-72.020340000">
<ele>0</ele>
<time>2026-09-04T06:35:10Z</time>
</trkpt>
<trkpt lat="45.905530000" lon="-72.021780000">
<ele>0</ele>
<time>2026-09-04T06:35:11Z</time>
</trkpt>
<trkpt lat="45.904810000" lon="-72.022560000">
<ele>0</ele>
<time>2026-09-04T06:35:12Z</time>
</trkpt>
<trkpt lat="45.903380000" lon="-72.024120000">
<ele>0</ele>
<time>2026-09-04T06:35:13Z</time>
</trkpt>
<trkpt lat="45.902660000" lon="-72.024880000">
<ele>0</ele>
<time>2026-09-04T06:35:14Z</time>
</trkpt>
<trkpt lat="45.901960000" lon="-72.025650000">
<ele>0</ele>
<time>2026-09-04T06:35:15Z</time>
</trkpt>
<trkpt lat="45.901090000" lon="-72.026630000">
<ele>0</ele>
<time>2026-09-04T06:35:16Z</time>
</trkpt>
<trkpt lat="45.900060000" lon="-72.027750000">
<ele>0</ele>
<time>2026-09-04T06:35:17Z</time>
</trkpt>
<trkpt lat="45.899940000" lon="-72.027910000">
<ele>0</ele>
<time>2026-09-04T06:35:18Z</time>
</trkpt>
<trkpt lat="45.899890000" lon="-72.028040000">
<ele>0</ele>
<time>2026-09-04T06:35:19Z</time>
</trkpt>
<trkpt lat="45.899930000" lon="-72.028200000">
<ele>0</ele>
<time>2026-09-04T06:35:20Z</time>
</trkpt>
<trkpt lat="45.899970000" lon="-72.028270000">
<ele>0</ele>
<time>2026-09-04T06:35:21Z</time>
</trkpt>
<trkpt lat="45.900390000" lon="-72.029120000">
<ele>0</ele>
<time>2026-09-04T06:35:22Z</time>
</trkpt>
<trkpt lat="45.900910000" lon="-72.030170000">
<ele>0</ele>
<time>2026-09-04T06:35:23Z</time>
</trkpt>
<trkpt lat="45.901490000" lon="-72.031310000">
<ele>0</ele>
<time>2026-09-04T06:35:24Z</time>
</trkpt>
<trkpt lat="45.901490000" lon="-72.031310000">
<ele>0</ele>
<time>2026-09-04T06:35:25Z</time>
</trkpt>
<trkpt lat="45.901550000" lon="-72.031440000">
<ele>0</ele>
<time>2026-09-04T06:35:26Z</time>
</trkpt>
<trkpt lat="45.900880000" lon="-72.031830000">
<ele>0</ele>
<time>2026-09-04T06:35:27Z</time>
</trkpt>
<trkpt lat="45.899560000" lon="-72.032630000">
<ele>0</ele>
<time>2026-09-04T06:35:28Z</time>
</trkpt>
<trkpt lat="45.893820000" lon="-72.036040000">
<ele>0</ele>
<time>2026-09-04T06:35:29Z</time>
</trkpt>
<trkpt lat="45.892110000" lon="-72.037070000">
<ele>0</ele>
<time>2026-09-04T06:35:30Z</time>
</trkpt>
<trkpt lat="45.891530000" lon="-72.037470000">
<ele>0</ele>
<time>2026-09-04T06:35:31Z</time>
</trkpt>
<trkpt lat="45.890910000" lon="-72.037970000">
<ele>0</ele>
<time>2026-09-04T06:35:32Z</time>
</trkpt>
<trkpt lat="45.890560000" lon="-72.038280000">
<ele>0</ele>
<time>2026-09-04T06:35:33Z</time>
</trkpt>
<trkpt lat="45.889740000" lon="-72.039080000">
<ele>0</ele>
<time>2026-09-04T06:35:34Z</time>
</trkpt>
<trkpt lat="45.888080000" lon="-72.040850000">
<ele>0</ele>
<time>2026-09-04T06:35:35Z</time>
</trkpt>
<trkpt lat="45.886610000" lon="-72.042430000">
<ele>0</ele>
<time>2026-09-04T06:35:36Z</time>
</trkpt>
<trkpt lat="45.886230000" lon="-72.042800000">
<ele>0</ele>
<time>2026-09-04T06:35:37Z</time>
</trkpt>
<trkpt lat="45.886050000" lon="-72.042950000">
<ele>0</ele>
<time>2026-09-04T06:35:38Z</time>
</trkpt>
<trkpt lat="45.885580000" lon="-72.043290000">
<ele>0</ele>
<time>2026-09-04T06:35:39Z</time>
</trkpt>
<trkpt lat="45.885080000" lon="-72.043580000">
<ele>0</ele>
<time>2026-09-04T06:35:40Z</time>
</trkpt>
<trkpt lat="45.885150000" lon="-72.043770000">
<ele>0</ele>
<time>2026-09-04T06:35:41Z</time>
</trkpt>
<trkpt lat="45.885150000" lon="-72.043770000">
<ele>0</ele>
<time>2026-09-04T06:35:42Z</time>
</trkpt>
<trkpt lat="45.885190000" lon="-72.043930000">
<ele>0</ele>
<time>2026-09-04T06:35:43Z</time>
</trkpt>
<trkpt lat="45.885230000" lon="-72.044250000">
<ele>0</ele>
<time>2026-09-04T06:35:44Z</time>
</trkpt>
<trkpt lat="45.885230000" lon="-72.044680000">
<ele>0</ele>
<time>2026-09-04T06:35:45Z</time>
</trkpt>
<trkpt lat="45.885150000" lon="-72.045120000">
<ele>0</ele>
<time>2026-09-04T06:35:46Z</time>
</trkpt>
<trkpt lat="45.885010000" lon="-72.045610000">
<ele>0</ele>
<time>2026-09-04T06:35:47Z</time>
</trkpt>
<trkpt lat="45.884520000" lon="-72.047390000">
<ele>0</ele>
<time>2026-09-04T06:35:48Z</time>
</trkpt>
<trkpt lat="45.884330000" lon="-72.047980000">
<ele>0</ele>
<time>2026-09-04T06:35:49Z</time>
</trkpt>
<trkpt lat="45.884180000" lon="-72.048290000">
<ele>0</ele>
<time>2026-09-04T06:35:50Z</time>
</trkpt>
<trkpt lat="45.884040000" lon="-72.048500000">
<ele>0</ele>
<time>2026-09-04T06:35:51Z</time>
</trkpt>
<trkpt lat="45.883830000" lon="-72.048740000">
<ele>0</ele>
<time>2026-09-04T06:35:52Z</time>
</trkpt>
<trkpt lat="45.883630000" lon="-72.048920000">
<ele>0</ele>
<time>2026-09-04T06:35:53Z</time>
</trkpt>
<trkpt lat="45.883320000" lon="-72.049130000">
<ele>0</ele>
<time>2026-09-04T06:35:54Z</time>
</trkpt>
<trkpt lat="45.883120000" lon="-72.049210000">
<ele>0</ele>
<time>2026-09-04T06:35:55Z</time>
</trkpt>
<trkpt lat="45.882840000" lon="-72.049280000">
<ele>0</ele>
<time>2026-09-04T06:35:56Z</time>
</trkpt>
<trkpt lat="45.881820000" lon="-72.049300000">
<ele>0</ele>
<time>2026-09-04T06:35:57Z</time>
</trkpt>
<trkpt lat="45.881000000" lon="-72.049330000">
<ele>0</ele>
<time>2026-09-04T06:35:58Z</time>
</trkpt>
<trkpt lat="45.880620000" lon="-72.049420000">
<ele>0</ele>
<time>2026-09-04T06:35:59Z</time>
</trkpt>
<trkpt lat="45.880290000" lon="-72.049570000">
<ele>0</ele>
<time>2026-09-04T06:36:00Z</time>
</trkpt>
<trkpt lat="45.880170000" lon="-72.049670000">
<ele>0</ele>
<time>2026-09-04T06:36:01Z</time>
</trkpt>
<trkpt lat="45.879860000" lon="-72.049920000">
<ele>0</ele>
<time>2026-09-04T06:36:02Z</time>
</trkpt>
<trkpt lat="45.879120000" lon="-72.050660000">
<ele>0</ele>
<time>2026-09-04T06:36:03Z</time>
</trkpt>
<trkpt lat="45.878090000" lon="-72.051690000">
<ele>0</ele>
<time>2026-09-04T06:36:04Z</time>
</trkpt>
<trkpt lat="45.876790000" lon="-72.053070000">
<ele>0</ele>
<time>2026-09-04T06:36:05Z</time>
</trkpt>
<trkpt lat="45.874070000" lon="-72.056040000">
<ele>0</ele>
<time>2026-09-04T06:36:06Z</time>
</trkpt>
<trkpt lat="45.872210000" lon="-72.058080000">
<ele>0</ele>
<time>2026-09-04T06:36:07Z</time>
</trkpt>
<trkpt lat="45.870300000" lon="-72.060010000">
<ele>0</ele>
<time>2026-09-04T06:36:08Z</time>
</trkpt>
<trkpt lat="45.870160000" lon="-72.060180000">
<ele>0</ele>
<time>2026-09-04T06:36:09Z</time>
</trkpt>
<trkpt lat="45.868690000" lon="-72.061950000">
<ele>0</ele>
<time>2026-09-04T06:36:10Z</time>
</trkpt>
<trkpt lat="45.867540000" lon="-72.063350000">
<ele>0</ele>
<time>2026-09-04T06:36:11Z</time>
</trkpt>
<trkpt lat="45.867110000" lon="-72.063970000">
<ele>0</ele>
<time>2026-09-04T06:36:12Z</time>
</trkpt>
<trkpt lat="45.866600000" lon="-72.064700000">
<ele>0</ele>
<time>2026-09-04T06:36:13Z</time>
</trkpt>
<trkpt lat="45.866100000" lon="-72.065300000">
<ele>0</ele>
<time>2026-09-04T06:36:14Z</time>
</trkpt>
<trkpt lat="45.865820000" lon="-72.065640000">
<ele>0</ele>
<time>2026-09-04T06:36:15Z</time>
</trkpt>
<trkpt lat="45.865120000" lon="-72.066440000">
<ele>0</ele>
<time>2026-09-04T06:36:16Z</time>
</trkpt>
<trkpt lat="45.864390000" lon="-72.067280000">
<ele>0</ele>
<time>2026-09-04T06:36:17Z</time>
</trkpt>
<trkpt lat="45.863570000" lon="-72.068200000">
<ele>0</ele>
<time>2026-09-04T06:36:18Z</time>
</trkpt>
<trkpt lat="45.862960000" lon="-72.068910000">
<ele>0</ele>
<time>2026-09-04T06:36:19Z</time>
</trkpt>
<trkpt lat="45.861800000" lon="-72.070280000">
<ele>0</ele>
<time>2026-09-04T06:36:20Z</time>
</trkpt>
<trkpt lat="45.860760000" lon="-72.071460000">
<ele>0</ele>
<time>2026-09-04T06:36:21Z</time>
</trkpt>
<trkpt lat="45.860290000" lon="-72.072030000">
<ele>0</ele>
<time>2026-09-04T06:36:22Z</time>
</trkpt>
<trkpt lat="45.859600000" lon="-72.072850000">
<ele>0</ele>
<time>2026-09-04T06:36:23Z</time>
</trkpt>
<trkpt lat="45.858610000" lon="-72.074030000">
<ele>0</ele>
<time>2026-09-04T06:36:24Z</time>
</trkpt>
<trkpt lat="45.857630000" lon="-72.075150000">
<ele>0</ele>
<time>2026-09-04T06:36:25Z</time>
</trkpt>
<trkpt lat="45.857460000" lon="-72.074900000">
<ele>0</ele>
<time>2026-09-04T06:36:26Z</time>
</trkpt>
<trkpt lat="45.857460000" lon="-72.074900000">
<ele>0</ele>
<time>2026-09-04T06:36:27Z</time>
</trkpt>
<trkpt lat="45.857280000" lon="-72.074620000">
<ele>0</ele>
<time>2026-09-04T06:36:28Z</time>
</trkpt>
<trkpt lat="45.857210000" lon="-72.074710000">
<ele>0</ele>
<time>2026-09-04T06:36:29Z</time>
</trkpt>
<trkpt lat="45.857210000" lon="-72.074710000">
<ele>0</ele>
<time>2026-09-04T06:36:30Z</time>
</trkpt>
<trkpt lat="45.856780000" lon="-72.075210000">
<ele>0</ele>
<time>2026-09-04T06:36:31Z</time>
</trkpt>
<trkpt lat="45.856780000" lon="-72.075210000">
<ele>0</ele>
<time>2026-09-04T06:36:32Z</time>
</trkpt>
<trkpt lat="45.857280000" lon="-72.074620000">
<ele>0</ele>
<time>2026-09-04T06:36:33Z</time>
</trkpt>
<trkpt lat="45.857370000" lon="-72.074760000">
<ele>0</ele>
<time>2026-09-04T06:36:34Z</time>
</trkpt>
<trkpt lat="45.857370000" lon="-72.074760000">
<ele>0</ele>
<time>2026-09-04T06:36:35Z</time>
</trkpt>
<trkpt lat="45.857630000" lon="-72.075150000">
<ele>0</ele>
<time>2026-09-04T06:36:36Z</time>
</trkpt>
<trkpt lat="45.857690000" lon="-72.075080000">
<ele>0</ele>
<time>2026-09-04T06:36:37Z</time>
</trkpt>
<trkpt lat="45.857690000" lon="-72.075080000">
<ele>0</ele>
<time>2026-09-04T06:36:38Z</time>
</trkpt>
<trkpt lat="45.858940000" lon="-72.073660000">
<ele>0</ele>
<time>2026-09-04T06:36:39Z</time>
</trkpt>
<trkpt lat="45.859880000" lon="-72.072500000">
<ele>0</ele>
<time>2026-09-04T06:36:40Z</time>
</trkpt>
<trkpt lat="45.860760000" lon="-72.071460000">
<ele>0</ele>
<time>2026-09-04T06:36:41Z</time>
</trkpt>
<trkpt lat="45.860810000" lon="-72.071560000">
<ele>0</ele>
<time>2026-09-04T06:36:42Z</time>
</trkpt>
<trkpt lat="45.860810000" lon="-72.071560000">
<ele>0</ele>
<time>2026-09-04T06:36:43Z</time>
</trkpt>
<trkpt lat="45.862130000" lon="-72.073840000">
<ele>0</ele>
<time>2026-09-04T06:36:44Z</time>
</trkpt>
<trkpt lat="45.864810000" lon="-72.078370000">
<ele>0</ele>
<time>2026-09-04T06:36:45Z</time>
</trkpt>
<trkpt lat="45.865760000" lon="-72.079920000">
<ele>0</ele>
<time>2026-09-04T06:36:46Z</time>
</trkpt>
<trkpt lat="45.866700000" lon="-72.081480000">
<ele>0</ele>
<time>2026-09-04T06:36:47Z</time>
</trkpt>
<trkpt lat="45.869030000" lon="-72.085430000">
<ele>0</ele>
<time>2026-09-04T06:36:48Z</time>
</trkpt>
<trkpt lat="45.869480000" lon="-72.086230000">
<ele>0</ele>
<time>2026-09-04T06:36:49Z</time>
</trkpt>
<trkpt lat="45.870880000" lon="-72.088740000">
<ele>0</ele>
<time>2026-09-04T06:36:50Z</time>
</trkpt>
<trkpt lat="45.871650000" lon="-72.090020000">
<ele>0</ele>
<time>2026-09-04T06:36:51Z</time>
</trkpt>
<trkpt lat="45.873170000" lon="-72.092570000">
<ele>0</ele>
<time>2026-09-04T06:36:52Z</time>
</trkpt>
<trkpt lat="45.873520000" lon="-72.093160000">
<ele>0</ele>
<time>2026-09-04T06:36:53Z</time>
</trkpt>
<trkpt lat="45.874170000" lon="-72.094400000">
<ele>0</ele>
<time>2026-09-04T06:36:54Z</time>
</trkpt>
<trkpt lat="45.874810000" lon="-72.095720000">
<ele>0</ele>
<time>2026-09-04T06:36:55Z</time>
</trkpt>
<trkpt lat="45.877480000" lon="-72.100520000">
<ele>0</ele>
<time>2026-09-04T06:36:56Z</time>
</trkpt>
<trkpt lat="45.878370000" lon="-72.102110000">
<ele>0</ele>
<time>2026-09-04T06:36:57Z</time>
</trkpt>
<trkpt lat="45.879040000" lon="-72.103320000">
<ele>0</ele>
<time>2026-09-04T06:36:58Z</time>
</trkpt>
<trkpt lat="45.881940000" lon="-72.108920000">
<ele>0</ele>
<time>2026-09-04T06:36:59Z</time>
</trkpt>
<trkpt lat="45.882000000" lon="-72.109070000">
<ele>0</ele>
<time>2026-09-04T06:37:00Z</time>
</trkpt>
<trkpt lat="45.884220000" lon="-72.113240000">
<ele>0</ele>
<time>2026-09-04T06:37:01Z</time>
</trkpt>
<trkpt lat="45.886100000" lon="-72.116700000">
<ele>0</ele>
<time>2026-09-04T06:37:02Z</time>
</trkpt>
<trkpt lat="45.887590000" lon="-72.119460000">
<ele>0</ele>
<time>2026-09-04T06:37:03Z</time>
</trkpt>
<trkpt lat="45.890730000" lon="-72.125320000">
<ele>0</ele>
<time>2026-09-04T06:37:04Z</time>
</trkpt>
<trkpt lat="45.894010000" lon="-72.131460000">
<ele>0</ele>
<time>2026-09-04T06:37:05Z</time>
</trkpt>
<trkpt lat="45.896840000" lon="-72.136810000">
<ele>0</ele>
<time>2026-09-04T06:37:06Z</time>
</trkpt>
<trkpt lat="45.902370000" lon="-72.147340000">
<ele>0</ele>
<time>2026-09-04T06:37:07Z</time>
</trkpt>
<trkpt lat="45.905300000" lon="-72.152900000">
<ele>0</ele>
<time>2026-09-04T06:37:08Z</time>
</trkpt>
<trkpt lat="45.906880000" lon="-72.155720000">
<ele>0</ele>
<time>2026-09-04T06:37:09Z</time>
</trkpt>
<trkpt lat="45.908140000" lon="-72.157920000">
<ele>0</ele>
<time>2026-09-04T06:37:10Z</time>
</trkpt>
<trkpt lat="45.909740000" lon="-72.160710000">
<ele>0</ele>
<time>2026-09-04T06:37:11Z</time>
</trkpt>
<trkpt lat="45.912270000" lon="-72.165080000">
<ele>0</ele>
<time>2026-09-04T06:37:12Z</time>
</trkpt>
<trkpt lat="45.915500000" lon="-72.170630000">
<ele>0</ele>
<time>2026-09-04T06:37:13Z</time>
</trkpt>
<trkpt lat="45.918940000" lon="-72.176610000">
<ele>0</ele>
<time>2026-09-04T06:37:14Z</time>
</trkpt>
<trkpt lat="45.921230000" lon="-72.180590000">
<ele>0</ele>
<time>2026-09-04T06:37:15Z</time>
</trkpt>
<trkpt lat="45.921580000" lon="-72.181190000">
<ele>0</ele>
<time>2026-09-04T06:37:16Z</time>
</trkpt>
<trkpt lat="45.921660000" lon="-72.181330000">
<ele>0</ele>
<time>2026-09-04T06:37:17Z</time>
</trkpt>
<trkpt lat="45.921620000" lon="-72.181380000">
<ele>0</ele>
<time>2026-09-04T06:37:18Z</time>
</trkpt>
<trkpt lat="45.921620000" lon="-72.181380000">
<ele>0</ele>
<time>2026-09-04T06:37:19Z</time>
</trkpt>
<trkpt lat="45.919520000" lon="-72.183990000">
<ele>0</ele>
<time>2026-09-04T06:37:20Z</time>
</trkpt>
<trkpt lat="45.919580000" lon="-72.184100000">
<ele>0</ele>
<time>2026-09-04T06:37:21Z</time>
</trkpt>
<trkpt lat="45.919580000" lon="-72.184100000">
<ele>0</ele>
<time>2026-09-04T06:37:22Z</time>
</trkpt>
<trkpt lat="45.920330000" lon="-72.185400000">
<ele>0</ele>
<time>2026-09-04T06:37:23Z</time>
</trkpt>
<trkpt lat="45.920910000" lon="-72.186390000">
<ele>0</ele>
<time>2026-09-04T06:37:24Z</time>
</trkpt>
<trkpt lat="45.920990000" lon="-72.186320000">
<ele>0</ele>
<time>2026-09-04T06:37:25Z</time>
</trkpt>
<trkpt lat="45.920990000" lon="-72.186320000">
<ele>0</ele>
<time>2026-09-04T06:37:26Z</time>
</trkpt>
<trkpt lat="45.921930000" lon="-72.185430000">
<ele>0</ele>
<time>2026-09-04T06:37:27Z</time>
</trkpt>
<trkpt lat="45.921930000" lon="-72.185430000">
<ele>0</ele>
<time>2026-09-04T06:37:28Z</time>
</trkpt>
<trkpt lat="45.920910000" lon="-72.186390000">
<ele>0</ele>
<time>2026-09-04T06:37:29Z</time>
</trkpt>
<trkpt lat="45.920860000" lon="-72.186300000">
<ele>0</ele>
<time>2026-09-04T06:37:30Z</time>
</trkpt>
<trkpt lat="45.920860000" lon="-72.186300000">
<ele>0</ele>
<time>2026-09-04T06:37:31Z</time>
</trkpt>
<trkpt lat="45.920220000" lon="-72.185200000">
<ele>0</ele>
<time>2026-09-04T06:37:32Z</time>
</trkpt>
<trkpt lat="45.919520000" lon="-72.183990000">
<ele>0</ele>
<time>2026-09-04T06:37:33Z</time>
</trkpt>
<trkpt lat="45.919680000" lon="-72.183790000">
<ele>0</ele>
<time>2026-09-04T06:37:34Z</time>
</trkpt>
<trkpt lat="45.919680000" lon="-72.183790000">
<ele>0</ele>
<time>2026-09-04T06:37:35Z</time>
</trkpt>
<trkpt lat="45.921660000" lon="-72.181330000">
<ele>0</ele>
<time>2026-09-04T06:37:36Z</time>
</trkpt>
<trkpt lat="45.926820000" lon="-72.174880000">
<ele>0</ele>
<time>2026-09-04T06:37:37Z</time>
</trkpt>
<trkpt lat="45.927340000" lon="-72.174180000">
<ele>0</ele>
<time>2026-09-04T06:37:38Z</time>
</trkpt>
<trkpt lat="45.927650000" lon="-72.173770000">
<ele>0</ele>
<time>2026-09-04T06:37:39Z</time>
</trkpt>
<trkpt lat="45.927980000" lon="-72.173190000">
<ele>0</ele>
<time>2026-09-04T06:37:40Z</time>
</trkpt>
<trkpt lat="45.928170000" lon="-72.172860000">
<ele>0</ele>
<time>2026-09-04T06:37:41Z</time>
</trkpt>
<trkpt lat="45.928520000" lon="-72.172020000">
<ele>0</ele>
<time>2026-09-04T06:37:42Z</time>
</trkpt>
<trkpt lat="45.928790000" lon="-72.171160000">
<ele>0</ele>
<time>2026-09-04T06:37:43Z</time>
</trkpt>
<trkpt lat="45.928930000" lon="-72.170430000">
<ele>0</ele>
<time>2026-09-04T06:37:44Z</time>
</trkpt>
<trkpt lat="45.929050000" lon="-72.169540000">
<ele>0</ele>
<time>2026-09-04T06:37:45Z</time>
</trkpt>
<trkpt lat="45.929210000" lon="-72.166520000">
<ele>0</ele>
<time>2026-09-04T06:37:46Z</time>
</trkpt>
<trkpt lat="45.929290000" lon="-72.165940000">
<ele>0</ele>
<time>2026-09-04T06:37:47Z</time>
</trkpt>
<trkpt lat="45.929360000" lon="-72.165500000">
<ele>0</ele>
<time>2026-09-04T06:37:48Z</time>
</trkpt>
<trkpt lat="45.929610000" lon="-72.164440000">
<ele>0</ele>
<time>2026-09-04T06:37:49Z</time>
</trkpt>
<trkpt lat="45.930040000" lon="-72.163330000">
<ele>0</ele>
<time>2026-09-04T06:37:50Z</time>
</trkpt>
<trkpt lat="45.930760000" lon="-72.162100000">
<ele>0</ele>
<time>2026-09-04T06:37:51Z</time>
</trkpt>
<trkpt lat="45.931290000" lon="-72.161440000">
<ele>0</ele>
<time>2026-09-04T06:37:52Z</time>
</trkpt>
<trkpt lat="45.933270000" lon="-72.159250000">
<ele>0</ele>
<time>2026-09-04T06:37:53Z</time>
</trkpt>
<trkpt lat="45.935560000" lon="-72.156740000">
<ele>0</ele>
<time>2026-09-04T06:37:54Z</time>
</trkpt>
<trkpt lat="45.938410000" lon="-72.153590000">
<ele>0</ele>
<time>2026-09-04T06:37:55Z</time>
</trkpt>
<trkpt lat="45.939690000" lon="-72.152170000">
<ele>0</ele>
<time>2026-09-04T06:37:56Z</time>
</trkpt>
<trkpt lat="45.941120000" lon="-72.150590000">
<ele>0</ele>
<time>2026-09-04T06:37:57Z</time>
</trkpt>
<trkpt lat="45.944590000" lon="-72.146770000">
<ele>0</ele>
<time>2026-09-04T06:37:58Z</time>
</trkpt>
<trkpt lat="45.945290000" lon="-72.146000000">
<ele>0</ele>
<time>2026-09-04T06:37:59Z</time>
</trkpt>
<trkpt lat="45.946990000" lon="-72.144060000">
<ele>0</ele>
<time>2026-09-04T06:38:00Z</time>
</trkpt>
<trkpt lat="45.949400000" lon="-72.141350000">
<ele>0</ele>
<time>2026-09-04T06:38:01Z</time>
</trkpt>
<trkpt lat="45.952670000" lon="-72.137700000">
<ele>0</ele>
<time>2026-09-04T06:38:02Z</time>
</trkpt>
<trkpt lat="45.954510000" lon="-72.135620000">
<ele>0</ele>
<time>2026-09-04T06:38:03Z</time>
</trkpt>
<trkpt lat="45.955750000" lon="-72.134200000">
<ele>0</ele>
<time>2026-09-04T06:38:04Z</time>
</trkpt>
<trkpt lat="45.957630000" lon="-72.132130000">
<ele>0</ele>
<time>2026-09-04T06:38:05Z</time>
</trkpt>
<trkpt lat="45.961010000" lon="-72.128350000">
<ele>0</ele>
<time>2026-09-04T06:38:06Z</time>
</trkpt>
<trkpt lat="45.965700000" lon="-72.123050000">
<ele>0</ele>
<time>2026-09-04T06:38:07Z</time>
</trkpt>
<trkpt lat="45.970520000" lon="-72.117630000">
<ele>0</ele>
<time>2026-09-04T06:38:08Z</time>
</trkpt>
<trkpt lat="45.974770000" lon="-72.112850000">
<ele>0</ele>
<time>2026-09-04T06:38:09Z</time>
</trkpt>
<trkpt lat="45.975800000" lon="-72.111730000">
<ele>0</ele>
<time>2026-09-04T06:38:10Z</time>
</trkpt>
<trkpt lat="45.977130000" lon="-72.110480000">
<ele>0</ele>
<time>2026-09-04T06:38:11Z</time>
</trkpt>
<trkpt lat="45.980840000" lon="-72.107040000">
<ele>0</ele>
<time>2026-09-04T06:38:12Z</time>
</trkpt>
<trkpt lat="45.982240000" lon="-72.105560000">
<ele>0</ele>
<time>2026-09-04T06:38:13Z</time>
</trkpt>
<trkpt lat="45.984780000" lon="-72.102750000">
<ele>0</ele>
<time>2026-09-04T06:38:14Z</time>
</trkpt>
<trkpt lat="45.985920000" lon="-72.101480000">
<ele>0</ele>
<time>2026-09-04T06:38:15Z</time>
</trkpt>
<trkpt lat="45.986350000" lon="-72.100940000">
<ele>0</ele>
<time>2026-09-04T06:38:16Z</time>
</trkpt>
<trkpt lat="45.986530000" lon="-72.100730000">
<ele>0</ele>
<time>2026-09-04T06:38:17Z</time>
</trkpt>
<trkpt lat="45.987420000" lon="-72.099420000">
<ele>0</ele>
<time>2026-09-04T06:38:18Z</time>
</trkpt>
<trkpt lat="45.989840000" lon="-72.095770000">
<ele>0</ele>
<time>2026-09-04T06:38:19Z</time>
</trkpt>
<trkpt lat="45.992320000" lon="-72.092020000">
<ele>0</ele>
<time>2026-09-04T06:38:20Z</time>
</trkpt>
<trkpt lat="45.992440000" lon="-72.091830000">
<ele>0</ele>
<time>2026-09-04T06:38:21Z</time>
</trkpt>
<trkpt lat="45.992990000" lon="-72.090940000">
<ele>0</ele>
<time>2026-09-04T06:38:22Z</time>
</trkpt>
<trkpt lat="45.993250000" lon="-72.090450000">
<ele>0</ele>
<time>2026-09-04T06:38:23Z</time>
</trkpt>
<trkpt lat="45.994360000" lon="-72.088410000">
<ele>0</ele>
<time>2026-09-04T06:38:24Z</time>
</trkpt>
<trkpt lat="45.995220000" lon="-72.086750000">
<ele>0</ele>
<time>2026-09-04T06:38:25Z</time>
</trkpt>
<trkpt lat="45.995860000" lon="-72.085660000">
<ele>0</ele>
<time>2026-09-04T06:38:26Z</time>
</trkpt>
<trkpt lat="45.996320000" lon="-72.084990000">
<ele>0</ele>
<time>2026-09-04T06:38:27Z</time>
</trkpt>
<trkpt lat="45.997860000" lon="-72.082870000">
<ele>0</ele>
<time>2026-09-04T06:38:28Z</time>
</trkpt>
<trkpt lat="45.998250000" lon="-72.082340000">
<ele>0</ele>
<time>2026-09-04T06:38:29Z</time>
</trkpt>
<trkpt lat="45.998210000" lon="-72.082260000">
<ele>0</ele>
<time>2026-09-04T06:38:30Z</time>
</trkpt>
<trkpt lat="45.998210000" lon="-72.082260000">
<ele>0</ele>
<time>2026-09-04T06:38:31Z</time>
</trkpt>
<trkpt lat="45.994980000" lon="-72.076000000">
<ele>0</ele>
<time>2026-09-04T06:38:32Z</time>
</trkpt>
<trkpt lat="45.991500000" lon="-72.069570000">
<ele>0</ele>
<time>2026-09-04T06:38:33Z</time>
</trkpt>
<trkpt lat="45.988740000" lon="-72.064460000">
<ele>0</ele>
<time>2026-09-04T06:38:34Z</time>
</trkpt>
<trkpt lat="45.987680000" lon="-72.062490000">
<ele>0</ele>
<time>2026-09-04T06:38:35Z</time>
</trkpt>
<trkpt lat="45.986390000" lon="-72.060020000">
<ele>0</ele>
<time>2026-09-04T06:38:36Z</time>
</trkpt>
<trkpt lat="45.985970000" lon="-72.059180000">
<ele>0</ele>
<time>2026-09-04T06:38:37Z</time>
</trkpt>
<trkpt lat="45.985590000" lon="-72.058380000">
<ele>0</ele>
<time>2026-09-04T06:38:38Z</time>
</trkpt>
<trkpt lat="45.984470000" lon="-72.056000000">
<ele>0</ele>
<time>2026-09-04T06:38:39Z</time>
</trkpt>
<trkpt lat="45.984330000" lon="-72.056150000">
<ele>0</ele>
<time>2026-09-04T06:38:40Z</time>
</trkpt>
<trkpt lat="45.984330000" lon="-72.056150000">
<ele>0</ele>
<time>2026-09-04T06:38:41Z</time>
</trkpt>
<trkpt lat="45.982020000" lon="-72.058600000">
<ele>0</ele>
<time>2026-09-04T06:38:42Z</time>
</trkpt>
<trkpt lat="45.980000000" lon="-72.060830000">
<ele>0</ele>
<time>2026-09-04T06:38:43Z</time>
</trkpt>
<trkpt lat="45.978750000" lon="-72.062080000">
<ele>0</ele>
<time>2026-09-04T06:38:44Z</time>
</trkpt>
<trkpt lat="45.975350000" lon="-72.065710000">
<ele>0</ele>
<time>2026-09-04T06:38:45Z</time>
</trkpt>
<trkpt lat="45.974470000" lon="-72.066610000">
<ele>0</ele>
<time>2026-09-04T06:38:46Z</time>
</trkpt>
<trkpt lat="45.972240000" lon="-72.068800000">
<ele>0</ele>
<time>2026-09-04T06:38:47Z</time>
</trkpt>
<trkpt lat="45.970310000" lon="-72.070690000">
<ele>0</ele>
<time>2026-09-04T06:38:48Z</time>
</trkpt>
<trkpt lat="45.968860000" lon="-72.072110000">
<ele>0</ele>
<time>2026-09-04T06:38:49Z</time>
</trkpt>
<trkpt lat="45.967510000" lon="-72.073510000">
<ele>0</ele>
<time>2026-09-04T06:38:50Z</time>
</trkpt>
<trkpt lat="45.966190000" lon="-72.074960000">
<ele>0</ele>
<time>2026-09-04T06:38:51Z</time>
</trkpt>
<trkpt lat="45.964580000" lon="-72.076520000">
<ele>0</ele>
<time>2026-09-04T06:38:52Z</time>
</trkpt>
<trkpt lat="45.962960000" lon="-72.078150000">
<ele>0</ele>
<time>2026-09-04T06:38:53Z</time>
</trkpt>
<trkpt lat="45.960520000" lon="-72.080820000">
<ele>0</ele>
<time>2026-09-04T06:38:54Z</time>
</trkpt>
<trkpt lat="45.960020000" lon="-72.081370000">
<ele>0</ele>
<time>2026-09-04T06:38:55Z</time>
</trkpt>
<trkpt lat="45.959740000" lon="-72.081690000">
<ele>0</ele>
<time>2026-09-04T06:38:56Z</time>
</trkpt>
<trkpt lat="45.959130000" lon="-72.082440000">
<ele>0</ele>
<time>2026-09-04T06:38:57Z</time>
</trkpt>
<trkpt lat="45.958810000" lon="-72.083070000">
<ele>0</ele>
<time>2026-09-04T06:38:58Z</time>
</trkpt>
<trkpt lat="45.958430000" lon="-72.083990000">
<ele>0</ele>
<time>2026-09-04T06:38:59Z</time>
</trkpt>
<trkpt lat="45.957800000" lon="-72.085500000">
<ele>0</ele>
<time>2026-09-04T06:39:00Z</time>
</trkpt>
<trkpt lat="45.957440000" lon="-72.086450000">
<ele>0</ele>
<time>2026-09-04T06:39:01Z</time>
</trkpt>
<trkpt lat="45.957190000" lon="-72.086960000">
<ele>0</ele>
<time>2026-09-04T06:39:02Z</time>
</trkpt>
<trkpt lat="45.957080000" lon="-72.087160000">
<ele>0</ele>
<time>2026-09-04T06:39:03Z</time>
</trkpt>
<trkpt lat="45.956940000" lon="-72.087330000">
<ele>0</ele>
<time>2026-09-04T06:39:04Z</time>
</trkpt>
<trkpt lat="45.956720000" lon="-72.087590000">
<ele>0</ele>
<time>2026-09-04T06:39:05Z</time>
</trkpt>
<trkpt lat="45.955050000" lon="-72.089300000">
<ele>0</ele>
<time>2026-09-04T06:39:06Z</time>
</trkpt>
<trkpt lat="45.954030000" lon="-72.090370000">
<ele>0</ele>
<time>2026-09-04T06:39:07Z</time>
</trkpt>
<trkpt lat="45.953020000" lon="-72.091460000">
<ele>0</ele>
<time>2026-09-04T06:39:08Z</time>
</trkpt>
<trkpt lat="45.950600000" lon="-72.094130000">
<ele>0</ele>
<time>2026-09-04T06:39:09Z</time>
</trkpt>
<trkpt lat="45.949180000" lon="-72.095720000">
<ele>0</ele>
<time>2026-09-04T06:39:10Z</time>
</trkpt>
<trkpt lat="45.946050000" lon="-72.099210000">
<ele>0</ele>
<time>2026-09-04T06:39:11Z</time>
</trkpt>
<trkpt lat="45.943930000" lon="-72.101610000">
<ele>0</ele>
<time>2026-09-04T06:39:12Z</time>
</trkpt>
<trkpt lat="45.942690000" lon="-72.103000000">
<ele>0</ele>
<time>2026-09-04T06:39:13Z</time>
</trkpt>
<trkpt lat="45.942620000" lon="-72.102870000">
<ele>0</ele>
<time>2026-09-04T06:39:14Z</time>
</trkpt>
<trkpt lat="45.942620000" lon="-72.102870000">
<ele>0</ele>
<time>2026-09-04T06:39:15Z</time>
</trkpt>
<trkpt lat="45.933640000" lon="-72.087090000">
<ele>0</ele>
<time>2026-09-04T06:39:16Z</time>
</trkpt>
<trkpt lat="45.931510000" lon="-72.083370000">
<ele>0</ele>
<time>2026-09-04T06:39:17Z</time>
</trkpt>
<trkpt lat="45.931340000" lon="-72.083110000">
<ele>0</ele>
<time>2026-09-04T06:39:18Z</time>
</trkpt>
<trkpt lat="45.931140000" lon="-72.082900000">
<ele>0</ele>
<time>2026-09-04T06:39:19Z</time>
</trkpt>
<trkpt lat="45.930870000" lon="-72.082760000">
<ele>0</ele>
<time>2026-09-04T06:39:20Z</time>
</trkpt>
<trkpt lat="45.930660000" lon="-72.082690000">
<ele>0</ele>
<time>2026-09-04T06:39:21Z</time>
</trkpt>
<trkpt lat="45.930520000" lon="-72.082680000">
<ele>0</ele>
<time>2026-09-04T06:39:22Z</time>
</trkpt>
<trkpt lat="45.930040000" lon="-72.082700000">
<ele>0</ele>
<time>2026-09-04T06:39:23Z</time>
</trkpt>
<trkpt lat="45.929430000" lon="-72.082700000">
<ele>0</ele>
<time>2026-09-04T06:39:24Z</time>
</trkpt>
<trkpt lat="45.928890000" lon="-72.082640000">
<ele>0</ele>
<time>2026-09-04T06:39:25Z</time>
</trkpt>
<trkpt lat="45.928630000" lon="-72.082540000">
<ele>0</ele>
<time>2026-09-04T06:39:26Z</time>
</trkpt>
<trkpt lat="45.928390000" lon="-72.082410000">
<ele>0</ele>
<time>2026-09-04T06:39:27Z</time>
</trkpt>
<trkpt lat="45.928220000" lon="-72.082280000">
<ele>0</ele>
<time>2026-09-04T06:39:28Z</time>
</trkpt>
<trkpt lat="45.927260000" lon="-72.081570000">
<ele>0</ele>
<time>2026-09-04T06:39:29Z</time>
</trkpt>
<trkpt lat="45.926340000" lon="-72.080880000">
<ele>0</ele>
<time>2026-09-04T06:39:30Z</time>
</trkpt>
<trkpt lat="45.926050000" lon="-72.080610000">
<ele>0</ele>
<time>2026-09-04T06:39:31Z</time>
</trkpt>
<trkpt lat="45.924640000" lon="-72.078500000">
<ele>0</ele>
<time>2026-09-04T06:39:32Z</time>
</trkpt>
<trkpt lat="45.923800000" lon="-72.077210000">
<ele>0</ele>
<time>2026-09-04T06:39:33Z</time>
</trkpt>
<trkpt lat="45.923750000" lon="-72.077220000">
<ele>0</ele>
<time>2026-09-04T06:39:34Z</time>
</trkpt>
<trkpt lat="45.922340000" lon="-72.078720000">
<ele>0</ele>
<time>2026-09-04T06:39:35Z</time>
</trkpt>
</trkseg>
</trk>
</gpx>
